Marlton, NJ

2:56 AM EDT on April 25, 2015 (GMT -0400)
Philadelphia International | | Change Station
CLOSE
Current Station
Airport
Location: Philadelphia,
Elevation: 26 ft
Nearby Weather Stations
Active Advisory: Freeze Warning

Elev 26 ft 39.87 °N, 75.23 °W | Updated 1 hour ago

Clear
Clear
43 °F
Feels Like 38 °F
N
8
Wind Variable Wind from NNW

Today
High -- | Low -- °F
--% Chance of Precip.
Yesterday
High -- | Low -- °F
Precip. -- in
6:08 AM 7:47 PM
Waxing Crescent, 43% visible
Pressure 29.98 in
Visibility 10.0 miles
Clouds Few 25000 ft
Windchill 38 °F
Dew Point 20 °F
Humidity 40%
Rainfall 0.00 in
Snow Depth Not available.
UV 0 out of 12
Pollen 9.70 out of 12
Air Quality Not available.
Flu Activity Local Activity
METAR KPHL 250554Z 33007KT 10SM FEW250 06/M07 A2998 RMK AO2 SLP152 T00611067 10128 20050 51011 $

More Conditions Fewer Conditions

Pressure 29.98 in
Visibility 10.0 miles
Clouds Few 25000 ft
Windchill 38 °F
Dew Point 20 °F
Humidity 40%
Rainfall 0.00 in
Snow Depth Not available.
UV 0 out of 12
Pollen 9.70 out of 12
Air Quality Not available.
Flu Activity Local Activity
METAR KPHL 250554Z 33007KT 10SM FEW250 06/M07 A2998 RMK AO2 SLP152 T00611067 10128 20050 51011 $

More Conditions Fewer Conditions

10-Day Weather Forecast

Almanac

Astronomy

Apr. 25, 2015 Rise Set
Actual Time
Civil Twilight
Nautical Twilight
Astronomical Twilight
Moon
Length of Visible Light
Length of Day
Tomorrow will be .
, % of the Moon is Illuminated

Today's Extremes

State Highs State Lows

Community

WunderPhotos

Upload Photos

1,816,624 photos uploaded!

WunderBlogs® & News

Nearby

Air Quality

  Air Quality AQ Index Pollutant
Not available.

Snow Depth

Station Depth Elevation

Earthquake Activity

City Distance Mag. Time & Date
Minimum magnitude displayed is 2.5.

Coastal Water Temperatures

Place Temperature

Stations

Nearby Weather Stations

Station Location Temp. Windchill Dew Point Humidity Wind Precip. Elev Updated Type
                   
Freeze Warning
Statement as of 9:54 PM EDT on April 24, 2015

... Freeze warning remains in effect from 2 am to 8 am EDT
Saturday...

* timing... freezing temperatures are possible late tonight and
early Saturday morning.

* Low temperatures... upper 20s to low 30s.

* Impacts... possible damage to early season plants that are
unprotected.

Precautionary/preparedness actions...

A freeze warning means sub-freezing temperatures are imminent or
highly likely. These conditions will kill crops and other
sensitive vegetation.